createdAt,value
2018-06-14T00:01:18.376Z,9.25
2018-06-14T00:03:46.933Z,9.03
2018-06-14T00:06:15.473Z,13.80
2018-06-14T00:08:44.053Z,10.63
2018-06-14T00:11:12.580Z,9.63
2018-06-14T00:13:41.153Z,9.90
2018-06-14T00:16:09.702Z,9.90
2018-06-14T00:18:38.266Z,9.17
2018-06-14T00:21:06.884Z,10.28
2018-06-14T00:23:35.466Z,10.45
2018-06-14T00:26:04.002Z,9.87
2018-06-14T00:28:32.569Z,10.23
2018-06-14T00:31:01.099Z,9.47
2018-06-14T00:33:29.677Z,10.37
2018-06-14T00:35:58.204Z,10.07
2018-06-14T00:38:26.753Z,9.17
2018-06-14T00:40:55.380Z,11.00
2018-06-14T00:43:23.954Z,14.10
2018-06-14T00:45:52.492Z,10.00
2018-06-14T00:48:21.049Z,9.90
2018-06-14T00:50:49.581Z,9.17
2018-06-14T00:53:18.153Z,10.90
2018-06-14T00:55:46.709Z,10.43
2018-06-14T00:58:15.261Z,9.60
2018-06-14T01:00:43.822Z,9.33
2018-06-14T01:03:12.400Z,9.93
2018-06-14T01:05:40.936Z,9.80
2018-06-14T01:08:09.522Z,10.63
2018-06-14T01:10:38.064Z,10.10
2018-06-14T01:13:06.653Z,10.67
2018-06-14T01:15:35.185Z,9.90
2018-06-14T01:18:04.517Z,10.60
2018-06-14T01:20:33.056Z,9.98
2018-06-14T01:23:01.596Z,8.83
2018-06-14T01:25:31.217Z,8.77
2018-06-14T01:27:59.757Z,9.60
2018-06-14T01:30:28.336Z,9.57
2018-06-14T01:32:56.873Z,8.93
2018-06-14T01:35:25.433Z,9.27
2018-06-14T01:38:05.129Z,10.60
2018-06-14T01:40:33.722Z,10.27
2018-06-14T01:43:02.253Z,9.13
2018-06-14T01:45:31.268Z,9.10
2018-06-14T01:47:59.841Z,11.50
2018-06-14T01:50:28.410Z,9.60
2018-06-14T01:52:56.965Z,10.97
2018-06-14T01:55:26.273Z,10.53
2018-06-14T01:57:54.825Z,11.33
2018-06-14T02:00:23.453Z,10.57
2018-06-14T02:02:51.993Z,11.77
2018-06-14T02:05:20.588Z,14.03
2018-06-14T02:07:49.140Z,13.50
2018-06-14T02:10:17.717Z,19.15
2018-06-14T02:12:46.261Z,11.87
2018-06-14T02:15:14.855Z,12.80
2018-06-14T02:17:43.439Z,11.97
2018-06-14T02:20:12.032Z,10.73
2018-06-14T02:22:40.637Z,13.87
2018-06-14T02:25:09.230Z,11.63
2018-06-14T02:27:37.781Z,10.00
2018-06-14T02:30:06.429Z,8.68
2018-06-14T02:32:34.977Z,9.53
2018-06-14T02:35:03.565Z,11.13
2018-06-14T02:37:36.308Z,9.53
2018-06-14T02:40:05.459Z,9.23
2018-06-14T02:42:34.069Z,8.80
2018-06-14T02:45:02.714Z,7.97
2018-06-14T02:47:31.444Z,9.20
2018-06-14T02:50:00.047Z,8.73
2018-06-14T02:52:28.601Z,8.30
2018-06-14T02:54:57.162Z,9.47
2018-06-14T02:57:25.689Z,7.80
2018-06-14T02:59:54.329Z,9.00
2018-06-14T03:02:22.881Z,8.07
2018-06-14T03:04:51.474Z,7.70
2018-06-14T03:07:25.205Z,7.40
2018-06-14T03:09:53.881Z,8.67
2018-06-14T03:12:22.456Z,8.38
2018-06-14T03:14:51.075Z,9.63
2018-06-14T03:17:20.828Z,8.27
2018-06-14T03:19:50.663Z,7.40
2018-06-14T03:22:19.464Z,8.68
2018-06-14T03:24:48.032Z,8.53
2018-06-14T03:27:16.624Z,7.30
2018-06-14T03:29:45.198Z,7.47
2018-06-14T03:32:13.881Z,8.20
2018-06-14T03:34:42.446Z,7.83
2018-06-14T03:37:11.285Z,7.77
2018-06-14T03:39:40.021Z,11.10
2018-06-14T03:42:15.757Z,7.05
2018-06-14T03:44:44.391Z,7.93
2018-06-14T03:47:12.982Z,8.60
2018-06-14T03:49:42.648Z,7.62
2018-06-14T03:52:12.389Z,7.93
2018-06-14T03:54:40.996Z,7.80
2018-06-14T03:57:09.877Z,8.20
2018-06-14T03:59:38.449Z,8.10
2018-06-14T04:02:07.348Z,7.73
2018-06-14T04:04:35.897Z,7.40
2018-06-14T04:07:04.540Z,8.80
2018-06-14T04:09:33.089Z,7.50
2018-06-14T04:12:01.731Z,6.53
2018-06-14T04:14:30.268Z,7.23
2018-06-14T04:16:58.837Z,7.17
2018-06-14T04:19:27.373Z,6.97
2018-06-14T04:21:55.938Z,8.60
2018-06-14T04:24:24.484Z,6.20
2018-06-14T04:26:53.068Z,6.43
2018-06-14T04:29:21.605Z,6.65
2018-06-14T04:31:50.180Z,7.70
2018-06-14T04:34:18.783Z,7.62
2018-06-14T04:36:47.590Z,7.37
2018-06-14T04:39:16.348Z,6.57
2018-06-14T04:41:45.798Z,8.30
2018-06-14T04:44:14.625Z,8.40
2018-06-14T04:46:43.441Z,8.35
2018-06-14T04:49:11.972Z,12.37
2018-06-14T04:51:43.237Z,9.10
2018-06-14T04:54:12.102Z,11.05
2018-06-14T04:56:41.449Z,7.97
2018-06-14T04:59:10.194Z,8.80
2018-06-14T05:01:38.812Z,9.20
2018-06-14T05:04:07.362Z,9.30
2018-06-14T05:06:35.993Z,10.60
2018-06-14T05:09:07.609Z,10.10
2018-06-14T05:11:36.802Z,9.13
2018-06-14T05:14:05.361Z,8.67
2018-06-14T05:16:33.942Z,9.03
2018-06-14T05:19:02.500Z,9.80
2018-06-14T05:21:32.025Z,9.55
2018-06-14T05:24:00.561Z,8.90
2018-06-14T05:26:29.132Z,9.20
2018-06-14T05:28:57.704Z,8.17
2018-06-14T05:31:26.268Z,13.40
2018-06-14T05:33:55.004Z,10.27
2018-06-14T05:36:23.541Z,12.17
2018-06-14T05:38:52.113Z,10.50
2018-06-14T05:41:20.657Z,11.27
2018-06-14T05:43:49.228Z,9.97
2018-06-14T05:46:17.777Z,12.40
2018-06-14T05:48:46.345Z,9.17
2018-06-14T05:51:14.906Z,8.23
2018-06-14T05:53:43.497Z,10.20
2018-06-14T05:56:12.074Z,9.10
2018-06-14T05:58:40.668Z,7.87
2018-06-14T06:01:09.288Z,8.80
2018-06-14T06:03:37.859Z,9.83
2018-06-14T06:06:06.412Z,10.18
2018-06-14T06:08:34.996Z,11.93
2018-06-14T06:11:03.557Z,8.77
2018-06-14T06:13:32.280Z,8.48
2018-06-14T06:16:00.814Z,8.77
2018-06-14T06:18:29.381Z,8.37
2018-06-14T06:20:57.933Z,9.13
2018-06-14T06:23:26.521Z,8.53
2018-06-14T06:25:55.084Z,7.53
2018-06-14T06:28:23.658Z,9.00
2018-06-14T06:30:53.132Z,9.67
2018-06-14T06:33:21.784Z,9.03
2018-06-14T06:35:50.306Z,9.80
2018-06-14T06:38:18.893Z,9.00
2018-06-14T06:40:47.437Z,8.37
2018-06-14T06:43:16.103Z,9.83
2018-06-14T06:45:51.361Z,11.23
2018-06-14T06:53:50.124Z,9.90
2018-06-14T06:56:18.680Z,10.60
2018-06-14T06:58:47.257Z,10.73
2018-06-14T07:01:15.872Z,18.23
2018-06-14T07:03:44.449Z,10.43
2018-06-14T07:06:13.108Z,15.87
2018-06-14T07:08:42.496Z,11.83
2018-06-14T07:11:12.163Z,13.80
2018-06-14T07:13:40.745Z,10.58
2018-06-14T07:16:09.309Z,11.03
2018-06-14T07:18:37.901Z,18.27
2018-06-14T07:21:06.894Z,11.17
2018-06-14T07:23:35.484Z,10.30
2018-06-14T07:26:04.045Z,12.37
2018-06-14T07:28:33.502Z,10.45
2018-06-14T07:31:02.041Z,9.93
2018-06-14T07:33:30.605Z,11.30
2018-06-14T07:35:59.160Z,11.80
2018-06-14T07:38:27.737Z,8.80
2018-06-14T07:40:56.550Z,9.60
2018-06-14T07:43:26.016Z,10.43
2018-06-14T07:45:54.897Z,9.90
2018-06-14T07:48:23.696Z,10.80
2018-06-14T07:50:52.497Z,9.53
2018-06-14T07:53:21.045Z,10.63
2018-06-14T07:55:50.140Z,9.63
2018-06-14T07:58:18.688Z,10.37
2018-06-14T08:00:49.317Z,10.00
2018-06-14T08:03:18.045Z,9.70
2018-06-14T08:05:46.861Z,10.20
2018-06-14T08:08:15.483Z,10.93
2018-06-14T08:10:44.124Z,9.63
2018-06-14T08:13:13.369Z,12.20
2018-06-14T08:15:41.978Z,11.97
2018-06-14T08:18:10.678Z,10.68
2018-06-14T08:23:20.992Z,12.30
2018-06-14T08:25:49.593Z,16.12
2018-06-14T08:28:18.216Z,11.07
2018-06-14T08:30:46.804Z,13.15
2018-06-14T08:33:15.349Z,13.25
2018-06-14T08:35:44.029Z,13.00
2018-06-14T08:38:12.633Z,16.27
2018-06-14T08:40:41.253Z,14.20
2018-06-14T08:43:09.821Z,11.70
2018-06-14T08:45:38.476Z,11.50
2018-06-14T08:48:07.033Z,11.77
2018-06-14T08:50:35.896Z,11.50
2018-06-14T08:53:04.526Z,11.07
2018-06-14T08:55:33.962Z,13.43
2018-06-14T08:58:02.512Z,11.60
2018-06-14T09:00:31.134Z,11.80
2018-06-14T09:02:59.680Z,10.70
2018-06-14T09:05:28.297Z,13.03
2018-06-14T09:07:56.831Z,9.67
2018-06-14T09:10:25.425Z,9.30
2018-06-14T09:12:54.084Z,8.80
2018-06-14T09:15:22.665Z,10.35
2018-06-14T09:17:51.201Z,9.88
2018-06-14T09:20:19.797Z,9.13
2018-06-14T09:22:48.352Z,9.97
2018-06-14T09:25:17.241Z,12.33
2018-06-14T09:27:45.788Z,13.30
2018-06-14T09:30:14.366Z,14.83
2018-06-14T09:32:42.913Z,11.00
2018-06-14T09:35:11.493Z,9.67
2018-06-14T09:37:40.050Z,11.17
2018-06-14T09:40:08.640Z,9.63
2018-06-14T09:42:37.210Z,11.40
2018-06-14T09:45:05.801Z,10.23
2018-06-14T09:47:34.428Z,10.13
2018-06-14T09:50:03.024Z,9.70
2018-06-14T09:52:31.563Z,11.17
2018-06-14T09:55:00.166Z,11.50
2018-06-14T09:57:28.709Z,11.00
2018-06-14T09:59:57.541Z,14.13
2018-06-14T10:02:26.113Z,9.43
2018-06-14T10:04:54.674Z,9.30
2018-06-14T10:07:23.252Z,10.13
2018-06-14T10:09:51.802Z,8.33
2018-06-14T10:12:20.392Z,9.30
2018-06-14T10:14:55.095Z,8.00
2018-06-14T10:17:23.917Z,8.13
2018-06-14T10:19:52.541Z,7.50
2018-06-14T10:22:21.987Z,6.73
2018-06-14T10:24:50.635Z,7.33
2018-06-14T10:27:19.952Z,8.40
2018-06-14T10:29:48.617Z,7.73
2018-06-14T10:32:17.282Z,8.00
2018-06-14T10:34:45.986Z,8.87
2018-06-14T10:37:14.601Z,9.60
2018-06-14T10:39:43.174Z,9.87
2018-06-14T10:42:11.744Z,9.67
2018-06-14T10:44:40.277Z,8.37
2018-06-14T10:47:08.949Z,7.30
2018-06-14T10:49:38.708Z,5.47
2018-06-14T10:52:07.276Z,6.00
2018-06-14T10:54:35.941Z,4.67
2018-06-14T10:57:05.220Z,6.35
2018-06-14T10:59:33.876Z,5.30
2018-06-14T11:02:02.461Z,5.67
2018-06-14T11:04:31.004Z,6.15
2018-06-14T11:06:59.598Z,4.83
2018-06-14T11:09:28.145Z,4.60
2018-06-14T11:11:56.718Z,4.93
2018-06-14T11:14:25.256Z,5.20
2018-06-14T11:16:53.829Z,6.13
2018-06-14T11:19:22.365Z,6.70
2018-06-14T11:21:50.940Z,11.73
2018-06-14T11:24:19.476Z,12.07
2018-06-14T11:26:48.088Z,7.57
2018-06-14T11:29:16.640Z,6.07
2018-06-14T11:31:45.244Z,5.80
2018-06-14T11:34:13.788Z,6.00
2018-06-14T11:36:42.413Z,5.45
2018-06-14T11:39:10.943Z,4.30
2018-06-14T11:41:39.508Z,4.30
2018-06-14T11:44:08.071Z,4.20
2018-06-14T11:46:36.640Z,6.50
2018-06-14T11:49:05.261Z,3.53
2018-06-14T11:51:33.881Z,3.20
2018-06-14T11:54:02.416Z,4.23
2018-06-14T11:56:30.956Z,3.93
2018-06-14T11:58:59.561Z,3.37
2018-06-14T12:01:28.097Z,3.23
2018-06-14T12:03:56.675Z,3.43
2018-06-14T12:06:25.205Z,2.92
2018-06-14T12:08:53.784Z,3.83
2018-06-14T12:11:22.327Z,2.90
2018-06-14T12:13:50.900Z,4.95
2018-06-14T12:16:20.057Z,3.42
2018-06-14T12:18:48.709Z,3.27
2018-06-14T12:21:18.383Z,3.13
2018-06-14T12:23:52.999Z,3.10
2018-06-14T12:26:21.628Z,3.43
2018-06-14T12:28:50.265Z,4.00
2018-06-14T12:31:18.814Z,3.08
2018-06-14T12:33:47.574Z,2.57
2018-06-14T12:36:18.614Z,2.90
2018-06-14T12:38:57.445Z,2.90
2018-06-14T12:41:26.120Z,2.93
2018-06-14T12:43:55.297Z,4.10
2018-06-14T12:46:23.838Z,2.67
2018-06-14T12:48:52.425Z,4.28
2018-06-14T12:51:24.411Z,3.80
2018-06-14T12:53:53.126Z,2.70
2018-06-14T12:56:21.698Z,3.13
2018-06-14T12:58:50.891Z,3.33
2018-06-14T13:01:19.468Z,2.77
2018-06-14T13:03:48.194Z,2.72
2018-06-14T13:06:16.774Z,2.80
2018-06-14T13:08:45.390Z,2.50
2018-06-14T13:11:14.908Z,2.40
2018-06-14T13:13:43.904Z,2.53
2018-06-14T13:16:12.468Z,3.77
2018-06-14T13:18:41.181Z,2.60
2018-06-14T13:21:09.982Z,4.47
2018-06-14T13:23:38.825Z,2.60
2018-06-14T13:26:07.460Z,2.60
2018-06-14T13:28:36.065Z,2.97
2018-06-14T13:31:04.750Z,3.20
2018-06-14T13:33:33.447Z,2.93
2018-06-14T13:36:02.099Z,2.57
2018-06-14T13:38:30.910Z,2.37
2018-06-14T13:40:59.498Z,2.57
2018-06-14T13:43:28.133Z,4.40
2018-06-14T13:45:56.777Z,2.70
2018-06-14T13:48:25.400Z,5.07
2018-06-14T13:50:53.984Z,4.63
2018-06-14T13:53:22.593Z,3.33
2018-06-14T13:55:51.193Z,4.25
2018-06-14T13:58:22.209Z,2.60
2018-06-14T14:00:51.301Z,2.17
2018-06-14T14:03:22.133Z,5.17
2018-06-14T14:05:51.025Z,5.83
2018-06-14T14:08:19.603Z,3.07
2018-06-14T14:10:48.185Z,3.27
2018-06-14T14:13:16.921Z,3.47
2018-06-14T14:15:47.393Z,2.72
2018-06-14T14:18:17.086Z,4.00
2018-06-14T14:20:51.364Z,3.13
2018-06-14T14:23:20.029Z,3.10
2018-06-14T14:25:54.685Z,4.22
2018-06-14T14:28:26.616Z,3.02
2018-06-14T14:30:55.936Z,3.63
2018-06-14T14:33:25.815Z,6.67
2018-06-14T14:35:55.900Z,2.87
2018-06-14T14:38:34.265Z,3.03
2018-06-14T14:41:07.089Z,3.17
2018-06-14T14:43:38.770Z,3.17
2018-06-14T14:46:10.625Z,3.30
2018-06-14T14:48:40.224Z,3.30
2018-06-14T14:51:08.793Z,3.67
2018-06-14T14:53:43.459Z,4.05
2018-06-14T14:56:16.756Z,3.67
2018-06-14T14:58:52.319Z,3.08
2018-06-14T15:01:29.332Z,3.40
2018-06-14T15:04:04.701Z,4.33
2018-06-14T15:06:38.186Z,3.00
2018-06-14T15:09:12.321Z,5.90
2018-06-14T15:11:46.859Z,7.37
2018-06-14T15:14:21.060Z,3.50
2018-06-14T15:16:54.186Z,3.22
2018-06-14T15:22:09.650Z,2.40
2018-06-14T15:24:39.372Z,2.90
2018-06-14T15:27:12.464Z,3.57
2018-06-14T15:29:43.172Z,2.97
2018-06-14T15:32:16.277Z,2.63
2018-06-14T15:34:47.421Z,5.07
2018-06-14T15:37:18.020Z,4.77
2018-06-14T15:39:47.581Z,3.70
2018-06-14T15:42:23.648Z,4.50
2018-06-14T15:44:53.584Z,2.70
2018-06-14T15:47:32.692Z,3.20
2018-06-14T15:50:02.747Z,3.53
2018-06-14T15:52:33.652Z,2.70
2018-06-14T15:55:13.965Z,3.73
2018-06-14T15:57:43.801Z,2.72
2018-06-14T16:00:14.310Z,2.60
2018-06-14T16:02:42.965Z,2.83
2018-06-14T16:05:15.697Z,2.77
2018-06-14T16:07:44.505Z,3.03
2018-06-14T16:10:13.044Z,2.83
2018-06-14T16:12:41.632Z,2.58
2018-06-14T16:15:10.189Z,3.07
2018-06-14T16:17:39.120Z,2.47
2018-06-14T16:20:07.893Z,2.12
2018-06-14T16:22:36.472Z,2.83
2018-06-14T16:25:05.033Z,2.60
2018-06-14T16:27:33.617Z,2.67
2018-06-14T16:30:02.174Z,3.83
2018-06-14T16:32:30.756Z,3.07
2018-06-14T16:34:59.309Z,2.30
2018-06-14T16:37:30.119Z,2.20
2018-06-14T16:39:58.718Z,4.57
2018-06-14T16:42:27.289Z,5.63
2018-06-14T16:44:55.856Z,2.20
2018-06-14T16:47:24.441Z,2.50
2018-06-14T16:49:52.984Z,2.40
2018-06-14T16:52:21.565Z,2.70
2018-06-14T16:54:50.106Z,2.22
2018-06-14T16:57:18.681Z,2.10
2018-06-14T16:59:47.269Z,2.50
2018-06-14T17:02:17.383Z,2.22
2018-06-14T17:04:46.096Z,4.17
2018-06-14T17:07:14.685Z,2.87
2018-06-14T17:09:47.619Z,3.87
2018-06-14T17:12:16.477Z,2.43
2018-06-14T17:14:46.983Z,2.53
2018-06-14T17:17:15.613Z,2.62
2018-06-14T17:19:44.420Z,3.30
2018-06-14T17:22:13.953Z,2.13
2018-06-14T17:24:42.867Z,2.50
2018-06-14T17:27:11.518Z,1.90
2018-06-14T17:29:40.061Z,2.67
2018-06-14T17:32:08.629Z,2.83
2018-06-14T17:34:37.339Z,2.20
2018-06-14T17:37:06.417Z,2.67
2018-06-14T17:39:37.499Z,3.37
2018-06-14T17:42:07.110Z,2.10
2018-06-14T17:44:37.012Z,2.60
2018-06-14T17:47:14.704Z,2.47
2018-06-14T17:49:45.062Z,2.57
2018-06-14T17:52:13.889Z,2.30
2018-06-14T17:54:43.207Z,2.73
2018-06-14T17:57:11.800Z,3.00
2018-06-14T17:59:40.393Z,2.70
2018-06-14T18:02:08.996Z,2.70
2018-06-14T18:04:37.525Z,3.23
2018-06-14T18:07:06.145Z,2.73
2018-06-14T18:09:34.694Z,2.47
2018-06-14T18:12:03.327Z,2.63
2018-06-14T18:14:32.004Z,2.77
2018-06-14T18:17:00.556Z,2.87
2018-06-14T18:19:29.549Z,2.87
2018-06-14T18:21:58.099Z,3.00
2018-06-14T18:24:26.673Z,3.45
2018-06-14T18:26:55.471Z,4.20
2018-06-14T18:29:24.963Z,4.33
2018-06-14T18:31:53.608Z,5.10
2018-06-14T18:34:22.427Z,4.47
2018-06-14T18:36:51.937Z,5.33
2018-06-14T18:39:20.763Z,5.10
2018-06-14T18:41:50.433Z,5.63
2018-06-14T18:44:19.848Z,5.03
2018-06-14T18:46:48.356Z,6.17
2018-06-14T18:49:17.141Z,6.30
2018-06-14T18:51:45.748Z,6.00
2018-06-14T18:54:14.861Z,6.57
2018-06-14T18:56:43.445Z,6.40
2018-06-14T18:59:12.060Z,6.83
2018-06-14T19:01:40.928Z,5.97
2018-06-14T19:04:09.546Z,6.30
2018-06-14T19:06:38.106Z,6.43
2018-06-14T19:09:08.902Z,7.17
2018-06-14T19:11:37.468Z,7.53
2018-06-14T19:14:06.440Z,7.23
2018-06-14T19:16:35.006Z,7.03
2018-06-14T19:19:03.588Z,7.20
2018-06-14T19:21:32.186Z,7.77
2018-06-14T19:24:01.476Z,7.60
2018-06-14T19:26:30.487Z,7.63
2018-06-14T19:29:01.620Z,8.50
2018-06-14T19:31:30.375Z,7.87
2018-06-14T19:34:06.509Z,8.48
2018-06-14T19:36:35.228Z,7.93
2018-06-14T19:39:11.648Z,8.07
2018-06-14T19:41:42.083Z,8.78
2018-06-14T19:44:11.054Z,8.35
2018-06-14T19:46:39.638Z,8.00
2018-06-14T19:49:08.281Z,8.07
2018-06-14T19:51:36.873Z,7.63
2018-06-14T19:54:05.564Z,8.70
2018-06-14T19:56:36.133Z,7.93
2018-06-14T19:59:04.845Z,8.27
2018-06-14T20:01:33.465Z,9.20
2018-06-14T20:04:04.567Z,9.30
2018-06-14T20:06:33.309Z,9.53
2018-06-14T20:09:01.853Z,11.00
2018-06-14T20:11:30.492Z,8.60
2018-06-14T20:13:59.047Z,8.90
2018-06-14T20:16:27.648Z,10.13
2018-06-14T20:18:56.207Z,9.17
2018-06-14T20:21:24.817Z,10.00
2018-06-14T20:23:53.357Z,10.60
2018-06-14T20:26:21.930Z,8.67
2018-06-14T20:28:50.492Z,9.43
2018-06-14T20:31:19.117Z,9.25
2018-06-14T20:33:48.650Z,8.07
2018-06-14T20:36:17.237Z,10.73
2018-06-14T20:38:45.785Z,10.73
2018-06-14T20:41:14.407Z,8.97
2018-06-14T20:43:42.997Z,9.97
2018-06-14T20:46:11.569Z,9.20
2018-06-14T20:48:40.125Z,10.23
2018-06-14T20:51:08.748Z,9.70
2018-06-14T20:53:37.329Z,9.57
2018-06-14T20:56:05.978Z,9.60
2018-06-14T20:58:34.534Z,10.83
2018-06-14T21:01:03.146Z,11.10
2018-06-14T21:03:33.493Z,12.03
2018-06-14T21:06:02.075Z,10.63
2018-06-14T21:08:30.641Z,10.43
2018-06-14T21:10:59.520Z,10.93
2018-06-14T21:13:28.079Z,13.03
2018-06-14T21:15:56.652Z,12.30
2018-06-14T21:18:25.204Z,12.93
2018-06-14T21:20:53.808Z,12.18
2018-06-14T21:23:22.385Z,13.27
2018-06-14T21:25:51.000Z,12.00
2018-06-14T21:28:19.552Z,12.63
2018-06-14T21:30:48.101Z,17.50
2018-06-14T21:33:16.693Z,13.17
2018-06-14T21:35:45.257Z,11.15
2018-06-14T21:38:13.853Z,10.93
2018-06-14T21:40:42.408Z,10.30
2018-06-14T21:43:11.450Z,11.08
2018-06-14T21:45:39.996Z,9.60
2018-06-14T21:48:08.593Z,10.67
2018-06-14T21:50:37.148Z,11.83
2018-06-14T21:53:05.752Z,10.70
2018-06-14T21:55:34.287Z,9.87
2018-06-14T21:58:02.866Z,9.23
2018-06-14T22:00:31.464Z,12.07
2018-06-14T22:03:05.242Z,12.17
2018-06-14T22:05:33.857Z,11.33
2018-06-14T22:08:02.722Z,11.40
2018-06-14T22:10:31.284Z,9.78
2018-06-14T22:12:59.852Z,10.50
2018-06-14T22:15:28.624Z,12.23
2018-06-14T22:17:57.652Z,11.40
2018-06-14T22:20:26.200Z,10.15
2018-06-14T22:22:54.787Z,10.45
2018-06-14T22:25:23.377Z,10.47
2018-06-14T22:27:52.001Z,10.00
2018-06-14T22:30:20.836Z,10.23
2018-06-14T22:32:59.397Z,10.78
2018-06-14T22:35:29.284Z,9.90
2018-06-14T22:37:58.097Z,9.88
2018-06-14T22:40:26.671Z,13.50
2018-06-14T22:42:55.248Z,11.05
2018-06-14T22:45:23.801Z,14.68
2018-06-14T22:47:52.396Z,11.93
2018-06-14T22:50:32.109Z,11.80
2018-06-14T22:53:03.644Z,11.90
2018-06-14T22:55:32.216Z,11.00
2018-06-14T22:58:00.817Z,11.53
2018-06-14T23:01:55.628Z,12.13
2018-06-14T23:04:27.302Z,15.27
2018-06-14T23:06:56.022Z,12.27
2018-06-14T23:10:42.208Z,12.80
2018-06-14T23:13:18.860Z,13.58
2018-06-14T23:15:47.474Z,13.87
2018-06-14T23:18:16.017Z,12.47
2018-06-14T23:20:44.590Z,14.28
2018-06-14T23:23:13.270Z,11.93
2018-06-14T23:25:41.845Z,12.63
2018-06-14T23:28:10.402Z,12.10
2018-06-14T23:30:38.981Z,11.17
2018-06-14T23:33:07.571Z,13.17
2018-06-14T23:35:36.176Z,12.27
2018-06-14T23:38:04.737Z,13.77
2018-06-14T23:40:33.327Z,13.83
2018-06-14T23:43:01.942Z,13.63
2018-06-14T23:45:30.481Z,14.10
2018-06-14T23:47:58.981Z,14.00
2018-06-14T23:50:27.514Z,13.13
2018-06-14T23:52:56.021Z,12.17
2018-06-14T23:55:24.556Z,13.70
2018-06-14T23:57:53.332Z,11.67
